createdAt,value
2022-11-17T00:02:04.334Z,4.30
2022-11-17T00:04:30.821Z,3.80
2022-11-17T00:06:58.701Z,4.68
2022-11-17T00:09:25.616Z,4.85
2022-11-17T00:12:23.037Z,4.38
2022-11-17T00:14:55.532Z,4.53
2022-11-17T00:17:25.401Z,3.80
2022-11-17T00:20:15.701Z,4.30
2022-11-17T00:22:42.680Z,4.22
2022-11-17T00:25:16.777Z,3.67
2022-11-17T00:27:46.194Z,3.67
2022-11-17T00:30:35.629Z,3.72
2022-11-17T00:33:24.583Z,3.78
2022-11-17T00:35:53.594Z,3.72
2022-11-17T00:38:22.847Z,3.60
2022-11-17T00:40:51.550Z,3.85
2022-11-17T00:43:18.401Z,3.92
2022-11-17T00:45:45.810Z,3.33
2022-11-17T00:48:15.832Z,3.63
2022-11-17T00:50:48.004Z,4.15
2022-11-17T00:53:14.632Z,3.30
2022-11-17T00:55:44.813Z,3.92
2022-11-17T00:58:11.451Z,3.15
2022-11-17T01:00:39.593Z,3.75
2022-11-17T01:03:11.542Z,3.40
2022-11-17T01:05:41.448Z,3.55
2022-11-17T01:08:08.175Z,3.97
2022-11-17T01:10:40.763Z,3.90
2022-11-17T01:13:07.464Z,4.30
2022-11-17T01:15:34.263Z,4.18
2022-11-17T01:18:00.797Z,3.60
2022-11-17T01:20:27.352Z,3.80
2022-11-17T01:22:56.420Z,3.90
2022-11-17T01:25:25.015Z,4.10
2022-11-17T01:28:00.733Z,3.30
2022-11-17T01:30:48.031Z,2.42
2022-11-17T01:33:17.497Z,3.03
2022-11-17T01:35:44.228Z,2.67
2022-11-17T01:38:25.087Z,2.47
2022-11-17T01:40:52.040Z,2.60
2022-11-17T01:43:38.517Z,2.42
2022-11-17T01:46:08.904Z,2.60
2022-11-17T01:48:35.403Z,1.80
2022-11-17T01:51:04.354Z,2.10
2022-11-17T01:53:33.729Z,2.42
2022-11-17T01:56:07.482Z,2.65
2022-11-17T01:58:37.921Z,2.25
2022-11-17T02:01:04.263Z,2.70
2022-11-17T02:03:34.448Z,3.13
2022-11-17T02:06:09.323Z,2.90
2022-11-17T02:08:37.958Z,2.40
2022-11-17T02:11:08.194Z,2.03
2022-11-17T02:13:36.454Z,2.22
2022-11-17T02:16:03.077Z,2.38
2022-11-17T02:18:29.606Z,2.15
2022-11-17T02:21:20.074Z,2.53
2022-11-17T02:24:08.114Z,2.30
2022-11-17T02:26:54.883Z,2.50
2022-11-17T02:29:28.591Z,2.10
2022-11-17T02:32:10.196Z,1.80
2022-11-17T02:34:56.933Z,1.90
2022-11-17T02:37:42.568Z,2.53
2022-11-17T02:40:13.564Z,3.10
2022-11-17T02:43:00.984Z,3.33
2022-11-17T02:45:36.036Z,3.50
2022-11-17T02:48:09.074Z,3.10
2022-11-17T02:50:38.179Z,2.47
2022-11-17T02:53:05.133Z,2.72
2022-11-17T02:55:35.427Z,2.17
2022-11-17T02:58:01.731Z,2.83
2022-11-17T03:00:30.810Z,2.28
2022-11-17T03:03:29.434Z,2.50
2022-11-17T03:06:10.312Z,2.25
2022-11-17T03:08:44.979Z,2.08
2022-11-17T03:11:11.600Z,1.80
2022-11-17T03:13:51.495Z,1.90
2022-11-17T03:16:48.166Z,2.60
2022-11-17T03:19:19.813Z,2.40
2022-11-17T03:22:22.622Z,2.42
2022-11-17T03:25:00.221Z,3.30
2022-11-17T03:27:38.980Z,1.98
2022-11-17T03:30:08.356Z,2.00
2022-11-17T03:32:41.367Z,2.30
2022-11-17T03:35:12.684Z,1.83
2022-11-17T03:37:44.726Z,2.10
2022-11-17T03:40:16.390Z,1.90
2022-11-17T03:42:52.499Z,2.30
2022-11-17T03:45:23.559Z,3.00
2022-11-17T03:47:57.002Z,1.95
2022-11-17T03:50:33.484Z,2.47
2022-11-17T03:53:02.933Z,1.98
2022-11-17T03:55:36.598Z,2.22
2022-11-17T03:58:09.115Z,2.10
2022-11-17T04:00:38.671Z,2.30
2022-11-17T04:03:05.050Z,2.05
2022-11-17T04:05:31.373Z,2.10
2022-11-17T04:07:57.722Z,2.00
2022-11-17T04:10:26.159Z,2.40
2022-11-17T04:13:12.633Z,2.67
2022-11-17T04:15:59.105Z,2.28
2022-11-17T04:18:26.881Z,2.22
2022-11-17T04:20:54.755Z,2.08
2022-11-17T04:23:21.487Z,2.33
2022-11-17T04:26:08.829Z,2.55
2022-11-17T04:28:37.377Z,2.10
2022-11-17T04:31:15.448Z,1.90
2022-11-17T04:33:50.413Z,3.35
2022-11-17T04:36:19.284Z,1.70
2022-11-17T04:38:51.201Z,1.50
2022-11-17T04:41:37.634Z,2.50
2022-11-17T04:44:05.631Z,1.80
2022-11-17T04:46:33.601Z,2.08
2022-11-17T04:49:01.272Z,1.75
2022-11-17T04:51:28.846Z,2.00
2022-11-17T04:53:55.993Z,1.88
2022-11-17T04:56:23.056Z,1.85
2022-11-17T04:58:50.394Z,1.52
2022-11-17T05:01:18.641Z,1.52
2022-11-17T05:03:46.115Z,1.55
2022-11-17T05:06:19.899Z,1.70
2022-11-17T05:08:46.634Z,2.20
2022-11-17T05:11:34.108Z,1.85
2022-11-17T05:14:01.146Z,2.10
2022-11-17T05:16:46.698Z,1.88
2022-11-17T05:19:19.245Z,1.58
2022-11-17T05:21:45.681Z,1.40
2022-11-17T05:24:14.250Z,1.60
2022-11-17T05:26:42.356Z,1.85
2022-11-17T05:29:10.091Z,1.60
2022-11-17T05:31:38.199Z,1.42
2022-11-17T05:34:06.700Z,1.75
2022-11-17T05:36:33.843Z,2.42
2022-11-17T05:39:00.838Z,1.33
2022-11-17T05:41:28.717Z,1.30
2022-11-17T05:43:55.950Z,1.30
2022-11-17T05:46:22.841Z,2.55
2022-11-17T05:48:50.319Z,1.40
2022-11-17T05:51:19.387Z,1.50
2022-11-17T05:53:46.190Z,1.42
2022-11-17T05:56:41.838Z,1.73
2022-11-17T05:59:18.791Z,1.42
2022-11-17T06:01:54.386Z,1.33
2022-11-17T06:04:20.842Z,1.45
2022-11-17T06:06:47.678Z,1.30
2022-11-17T06:09:14.191Z,1.20
2022-11-17T06:11:40.527Z,1.23
2022-11-17T06:14:06.834Z,2.03
2022-11-17T06:16:37.264Z,1.73
2022-11-17T06:19:09.474Z,1.55
2022-11-17T06:22:04.432Z,1.00
2022-11-17T06:24:23.231Z,1.25
2022-11-17T06:26:49.575Z,2.45
2022-11-17T06:29:16.350Z,1.42
2022-11-17T06:31:44.626Z,1.65
2022-11-17T06:34:11.281Z,1.80
2022-11-17T06:36:37.594Z,1.20
2022-11-17T06:39:04.130Z,1.23
2022-11-17T06:41:30.727Z,1.50
2022-11-17T06:43:57.070Z,1.30
2022-11-17T06:46:23.378Z,1.40
2022-11-17T06:48:49.713Z,1.45
2022-11-17T06:51:16.087Z,1.27
2022-11-17T06:53:42.478Z,1.52
2022-11-17T06:56:09.574Z,1.25
2022-11-17T06:58:38.295Z,1.02
2022-11-17T07:01:10.598Z,1.50
2022-11-17T07:03:38.986Z,1.50
2022-11-17T07:06:07.150Z,1.20
2022-11-17T07:08:35.111Z,1.40
2022-11-17T07:11:03.294Z,1.15
2022-11-17T07:13:30.868Z,1.38
2022-11-17T07:16:05.890Z,1.17
2022-11-17T07:18:33.352Z,1.73
2022-11-17T07:21:05.297Z,1.60
2022-11-17T07:23:32.957Z,1.30
2022-11-17T07:25:59.765Z,1.60
2022-11-17T07:28:26.952Z,0.98
2022-11-17T07:30:53.589Z,1.58
2022-11-17T07:33:20.494Z,1.33
2022-11-17T07:35:47.089Z,1.60
2022-11-17T07:38:13.746Z,1.17
2022-11-17T07:40:40.614Z,1.02
2022-11-17T07:43:07.016Z,1.30
2022-11-17T07:45:36.432Z,1.67
2022-11-17T07:48:05.794Z,1.33
2022-11-17T07:50:33.938Z,1.30
2022-11-17T07:53:00.995Z,1.80
2022-11-17T07:55:27.516Z,1.60
2022-11-17T07:57:55.957Z,1.88
2022-11-17T08:00:22.713Z,1.20
2022-11-17T08:02:50.217Z,1.60
2022-11-17T08:05:19.878Z,1.30
2022-11-17T08:07:53.947Z,1.42
2022-11-17T08:10:20.340Z,1.42
2022-11-17T08:12:47.040Z,1.35
2022-11-17T08:15:13.591Z,1.58
2022-11-17T08:17:39.929Z,1.27
2022-11-17T08:20:06.817Z,1.00
2022-11-17T08:22:33.224Z,2.30
2022-11-17T08:24:59.670Z,1.33
2022-11-17T08:27:26.885Z,1.10
2022-11-17T08:29:53.467Z,1.55
2022-11-17T08:32:19.894Z,1.33
2022-11-17T08:34:46.334Z,1.60
2022-11-17T08:37:12.737Z,1.50
2022-11-17T08:39:39.125Z,1.40
2022-11-17T08:42:05.607Z,1.38
2022-11-17T08:44:32.017Z,1.23
2022-11-17T08:46:58.357Z,1.60
2022-11-17T08:49:24.847Z,0.98
2022-11-17T08:51:51.263Z,1.67
2022-11-17T08:54:17.674Z,1.65
2022-11-17T08:56:46.271Z,1.40
2022-11-17T08:59:13.404Z,1.23
2022-11-17T09:01:40.346Z,1.95
2022-11-17T09:04:06.843Z,1.33
2022-11-17T09:06:33.228Z,1.83
2022-11-17T09:09:00.093Z,1.13
2022-11-17T09:11:26.829Z,1.20
2022-11-17T09:13:53.416Z,0.98
2022-11-17T09:16:20.496Z,1.55
2022-11-17T09:18:46.920Z,0.90
2022-11-17T09:21:15.503Z,1.30
2022-11-17T09:23:42.264Z,1.15
2022-11-17T09:26:12.234Z,0.98
2022-11-17T09:28:39.044Z,2.08
2022-11-17T09:31:11.303Z,1.10
2022-11-17T09:33:37.888Z,1.30
2022-11-17T09:36:04.556Z,0.85
2022-11-17T09:38:30.940Z,1.20
2022-11-17T09:40:58.809Z,1.17
2022-11-17T09:43:28.738Z,1.45
2022-11-17T09:46:07.530Z,1.42
2022-11-17T09:48:44.641Z,1.50
2022-11-17T09:51:17.008Z,1.08
2022-11-17T09:53:52.147Z,1.58
2022-11-17T09:56:18.517Z,1.77
2022-11-17T09:58:47.511Z,1.38
2022-11-17T10:01:16.918Z,0.85
2022-11-17T10:03:46.334Z,1.15
2022-11-17T10:06:24.968Z,1.17
2022-11-17T10:09:14.371Z,1.20
2022-11-17T10:11:43.186Z,1.02
2022-11-17T10:14:13.189Z,0.93
2022-11-17T10:16:45.928Z,1.25
2022-11-17T10:19:30.381Z,1.02
2022-11-17T10:22:02.476Z,0.68
2022-11-17T10:24:34.958Z,0.98
2022-11-17T10:27:03.202Z,1.35
2022-11-17T10:29:30.052Z,1.10
2022-11-17T10:31:57.356Z,1.13
2022-11-17T10:34:40.617Z,0.63
2022-11-17T10:37:13.490Z,1.95
2022-11-17T10:39:42.039Z,1.08
2022-11-17T10:42:29.984Z,1.20
2022-11-17T10:44:58.414Z,1.48
2022-11-17T10:47:31.687Z,1.23
2022-11-17T10:50:24.441Z,1.75
2022-11-17T10:52:53.024Z,1.33
2022-11-17T10:55:32.635Z,1.10
2022-11-17T10:58:06.304Z,1.25
2022-11-17T11:00:35.556Z,1.08
2022-11-17T11:03:23.081Z,1.25
2022-11-17T11:06:04.124Z,1.10
2022-11-17T11:08:42.905Z,1.48
2022-11-17T11:11:20.352Z,1.25
2022-11-17T11:13:59.772Z,1.65
2022-11-17T11:16:28.843Z,1.75
2022-11-17T11:18:55.268Z,1.40
2022-11-17T11:21:43.091Z,1.15
2022-11-17T11:24:25.308Z,3.40
2022-11-17T11:27:23.744Z,1.20
2022-11-17T11:30:10.303Z,2.33
2022-11-17T11:32:55.447Z,2.72
2022-11-17T11:35:37.483Z,2.10
2022-11-17T11:38:32.564Z,1.30
2022-11-17T11:41:07.196Z,1.98
2022-11-17T11:43:47.124Z,1.30
2022-11-17T11:46:21.616Z,2.13
2022-11-17T11:48:52.500Z,1.30
2022-11-17T11:51:24.999Z,1.08
2022-11-17T11:54:01.791Z,1.77
2022-11-17T11:56:34.973Z,1.48
2022-11-17T11:59:07.941Z,0.80
2022-11-17T12:04:38.243Z,2.55
2022-11-17T12:07:16.990Z,1.55
2022-11-17T12:09:49.205Z,1.35
2022-11-17T12:12:18.986Z,0.95
2022-11-17T12:15:07.430Z,1.00
2022-11-17T12:17:33.969Z,1.45
2022-11-17T12:20:09.307Z,1.45
2022-11-17T12:22:37.105Z,1.17
2022-11-17T12:25:28.441Z,0.77
2022-11-17T12:27:55.197Z,1.02
2022-11-17T12:30:30.743Z,1.35
2022-11-17T12:32:59.031Z,0.90
2022-11-17T12:35:27.147Z,0.60
2022-11-17T12:38:15.416Z,1.33
2022-11-17T12:40:48.691Z,0.40
2022-11-17T12:43:15.055Z,0.70
2022-11-17T12:45:53.850Z,0.70
2022-11-17T12:48:33.879Z,0.52
2022-11-17T12:51:16.487Z,0.52
2022-11-17T12:53:51.914Z,0.90
2022-11-17T12:56:37.592Z,0.60
2022-11-17T12:59:26.614Z,0.40
2022-11-17T13:02:16.574Z,0.57
2022-11-17T13:04:49.646Z,0.80
2022-11-17T13:07:21.931Z,1.02
2022-11-17T13:09:53.883Z,0.60
2022-11-17T13:12:28.715Z,0.77
2022-11-17T13:14:57.425Z,1.40
2022-11-17T13:17:28.834Z,0.70
2022-11-17T13:20:01.136Z,0.60
2022-11-17T13:22:27.661Z,0.73
2022-11-17T13:24:54.472Z,0.85
2022-11-17T13:27:29.433Z,0.75
2022-11-17T13:30:34.439Z,0.55
2022-11-17T13:33:03.629Z,1.13
2022-11-17T13:35:35.272Z,0.88
2022-11-17T13:38:21.256Z,1.10
2022-11-17T13:40:52.204Z,0.73
2022-11-17T13:43:23.983Z,0.90
2022-11-17T13:45:51.463Z,0.60
2022-11-17T13:48:32.479Z,1.08
2022-11-17T13:51:17.525Z,0.85
2022-11-17T13:53:46.273Z,1.13
2022-11-17T13:56:24.578Z,1.23
2022-11-17T13:58:51.607Z,0.75
2022-11-17T14:01:30.987Z,1.10
2022-11-17T14:04:20.147Z,0.70
2022-11-17T14:06:59.294Z,0.90
2022-11-17T14:09:28.379Z,1.02
2022-11-17T14:11:55.605Z,0.70
2022-11-17T14:14:30.008Z,0.68
2022-11-17T14:16:57.513Z,0.98
2022-11-17T14:19:26.925Z,0.80
2022-11-17T14:22:04.284Z,2.47
2022-11-17T14:24:32.218Z,0.80
2022-11-17T14:26:59.469Z,0.93
2022-11-17T14:29:27.802Z,1.00
2022-11-17T14:31:55.059Z,1.20
2022-11-17T14:34:22.020Z,0.60
2022-11-17T14:36:53.445Z,1.60
2022-11-17T14:39:19.828Z,0.80
2022-11-17T14:41:49.589Z,1.95
2022-11-17T14:44:16.467Z,2.15
2022-11-17T14:46:43.258Z,1.60
2022-11-17T14:49:10.277Z,1.70
2022-11-17T14:51:36.728Z,1.70
2022-11-17T14:54:03.907Z,1.35
2022-11-17T14:56:30.492Z,2.50
2022-11-17T14:58:59.032Z,1.67
2022-11-17T15:01:29.359Z,0.85
2022-11-17T15:03:58.047Z,0.98
2022-11-17T15:06:24.845Z,1.05
2022-11-17T15:08:59.408Z,0.98
2022-11-17T15:11:27.280Z,1.33
2022-11-17T15:13:53.701Z,1.27
2022-11-17T15:16:20.413Z,0.98
2022-11-17T15:18:47.967Z,1.10
2022-11-17T15:21:15.981Z,1.27
2022-11-17T15:23:43.676Z,1.23
2022-11-17T15:26:16.855Z,1.10
2022-11-17T15:28:43.289Z,0.95
2022-11-17T15:31:10.543Z,0.77
2022-11-17T15:33:37.313Z,0.90
2022-11-17T15:36:05.279Z,1.95
2022-11-17T15:38:32.914Z,1.48
2022-11-17T15:40:59.574Z,2.40
2022-11-17T15:43:28.407Z,2.08
2022-11-17T15:46:02.185Z,2.03
2022-11-17T15:48:30.162Z,1.70
2022-11-17T15:50:57.756Z,2.10
2022-11-17T15:53:24.132Z,2.08
2022-11-17T15:55:50.455Z,1.63
2022-11-17T15:58:16.852Z,1.73
2022-11-17T16:00:43.202Z,2.28
2022-11-17T16:03:09.574Z,1.88
2022-11-17T16:05:35.966Z,1.63
2022-11-17T16:08:02.344Z,1.85
2022-11-17T16:10:29.018Z,1.98
2022-11-17T16:12:56.241Z,1.83
2022-11-17T16:15:23.305Z,1.33
2022-11-17T16:17:49.718Z,1.48
2022-11-17T16:20:16.289Z,1.50
2022-11-17T16:22:42.692Z,1.35
2022-11-17T16:25:10.309Z,1.80
2022-11-17T16:27:36.627Z,1.90
2022-11-17T16:30:03.310Z,2.20
2022-11-17T16:32:31.464Z,1.77
2022-11-17T16:34:57.826Z,1.80
2022-11-17T16:37:24.663Z,1.55
2022-11-17T16:39:50.982Z,1.15
2022-11-17T16:42:17.393Z,1.27
2022-11-17T16:44:43.846Z,1.45
2022-11-17T16:47:10.287Z,1.65
2022-11-17T16:49:36.878Z,1.35
2022-11-17T16:52:03.315Z,1.17
2022-11-17T16:54:29.740Z,0.93
2022-11-17T16:56:56.051Z,1.50
2022-11-17T16:59:22.420Z,1.40
2022-11-17T17:01:48.964Z,1.40
2022-11-17T17:04:15.722Z,1.83
2022-11-17T17:06:43.883Z,1.15
2022-11-17T17:09:12.174Z,1.75
2022-11-17T17:11:39.543Z,1.13
2022-11-17T17:14:09.303Z,2.42
2022-11-17T17:16:37.445Z,1.27
2022-11-17T17:19:06.717Z,1.00
2022-11-17T17:21:34.327Z,1.42
2022-11-17T17:24:01.247Z,1.35
2022-11-17T17:26:30.331Z,1.70
2022-11-17T17:29:00.187Z,1.67
2022-11-17T17:31:31.230Z,1.73
2022-11-17T17:33:57.759Z,2.05
2022-11-17T17:36:25.014Z,3.05
2022-11-17T17:38:56.039Z,3.15
2022-11-17T17:41:30.953Z,2.42
2022-11-17T17:43:59.843Z,2.72
2022-11-17T17:46:29.424Z,2.55
2022-11-17T17:48:56.185Z,2.60
2022-11-17T17:51:24.928Z,2.38
2022-11-17T17:53:53.651Z,4.88
2022-11-17T17:56:21.490Z,5.03
2022-11-17T17:58:50.309Z,1.30
2022-11-17T18:01:25.547Z,1.58
2022-11-17T18:03:53.930Z,1.45
2022-11-17T18:06:22.361Z,1.55
2022-11-17T18:08:49.217Z,1.67
2022-11-17T18:11:19.237Z,1.95
2022-11-17T18:13:48.248Z,1.50
2022-11-17T18:16:21.504Z,1.10
2022-11-17T18:18:48.742Z,1.75
2022-11-17T18:21:18.637Z,1.58
2022-11-17T18:23:45.846Z,1.58
2022-11-17T18:26:17.259Z,1.45
2022-11-17T18:28:50.091Z,1.25
2022-11-17T18:31:16.448Z,2.08
2022-11-17T18:33:45.172Z,1.25
2022-11-17T18:36:11.946Z,1.70
2022-11-17T18:38:38.732Z,1.08
2022-11-17T18:41:14.964Z,0.70
2022-11-17T18:43:42.440Z,1.50
2022-11-17T18:46:17.916Z,1.00
2022-11-17T18:48:49.067Z,1.48
2022-11-17T18:51:19.819Z,1.58
2022-11-17T18:53:52.002Z,1.00
2022-11-17T18:56:24.516Z,1.38
2022-11-17T19:01:55.871Z,1.98
2022-11-17T19:04:22.396Z,1.00
2022-11-17T19:06:51.531Z,1.25
2022-11-17T19:09:18.657Z,1.17
2022-11-17T19:11:45.196Z,0.95
2022-11-17T19:14:11.587Z,1.20
2022-11-17T19:16:44.096Z,1.60
2022-11-17T19:19:13.003Z,1.38
2022-11-17T19:21:39.893Z,1.60
2022-11-17T19:24:06.985Z,1.58
2022-11-17T19:26:34.805Z,1.17
2022-11-17T19:29:03.958Z,1.42
2022-11-17T19:31:30.772Z,2.30
2022-11-17T19:33:57.863Z,2.15
2022-11-17T19:36:29.648Z,2.63
2022-11-17T19:38:57.922Z,2.45
2022-11-17T19:41:36.336Z,2.45
2022-11-17T19:44:05.308Z,2.40
2022-11-17T19:46:31.940Z,2.20
2022-11-17T19:48:58.851Z,1.90
2022-11-17T19:51:36.808Z,1.52
2022-11-17T19:54:06.372Z,2.17
2022-11-17T19:56:32.840Z,2.67
2022-11-17T19:58:59.324Z,2.60
2022-11-17T20:01:27.987Z,3.35
2022-11-17T20:03:55.518Z,3.03
2022-11-17T20:06:24.443Z,3.42
2022-11-17T20:08:50.972Z,3.47
2022-11-17T20:11:22.667Z,3.72
2022-11-17T20:13:49.951Z,3.80
2022-11-17T20:16:22.056Z,3.60
2022-11-17T20:18:50.791Z,3.67
2022-11-17T20:21:17.807Z,2.70
2022-11-17T20:23:44.462Z,3.42
2022-11-17T20:26:13.380Z,3.50
2022-11-17T20:28:40.148Z,2.90
2022-11-17T20:31:10.459Z,2.85
2022-11-17T20:33:41.695Z,2.60
2022-11-17T20:36:11.379Z,3.05
2022-11-17T20:38:37.913Z,4.13
2022-11-17T20:41:05.339Z,5.05
2022-11-17T20:43:32.783Z,5.03
2022-11-17T20:45:59.759Z,4.72
2022-11-17T20:48:27.501Z,4.97
2022-11-17T20:50:58.990Z,4.07
2022-11-17T20:53:25.749Z,3.65
2022-11-17T20:55:54.515Z,3.53
2022-11-17T20:58:21.443Z,2.92
2022-11-17T21:00:48.301Z,3.10
2022-11-17T21:03:14.905Z,3.25
2022-11-17T21:05:41.296Z,3.35
2022-11-17T21:08:07.697Z,3.67
2022-11-17T21:10:34.177Z,3.63
2022-11-17T21:13:00.772Z,3.53
2022-11-17T21:15:27.105Z,3.58
2022-11-17T21:18:15.288Z,3.80
2022-11-17T21:20:41.692Z,4.40
2022-11-17T21:23:08.113Z,3.33
2022-11-17T21:25:36.610Z,3.45
2022-11-17T21:28:02.976Z,2.67
2022-11-17T21:30:29.445Z,4.45
2022-11-17T21:32:55.836Z,4.18
2022-11-17T21:35:22.214Z,4.15
2022-11-17T21:37:48.592Z,3.03
2022-11-17T21:40:15.512Z,2.95
2022-11-17T21:42:41.869Z,3.92
2022-11-17T21:45:08.941Z,3.38
2022-11-17T21:47:37.719Z,4.28
2022-11-17T21:50:04.478Z,4.18
2022-11-17T21:52:30.909Z,3.45
2022-11-17T21:54:57.480Z,4.00
2022-11-17T21:57:23.945Z,3.17
2022-11-17T21:59:50.362Z,3.17
2022-11-17T22:02:23.396Z,3.22
2022-11-17T22:07:21.512Z,3.65
2022-11-17T22:10:00.660Z,4.07
2022-11-17T22:12:34.435Z,4.65
2022-11-17T22:15:11.665Z,3.95
2022-11-17T22:18:40.822Z,4.38
2022-11-17T22:25:44.293Z,4.30
2022-11-17T22:28:54.644Z,4.63
2022-11-17T22:31:24.026Z,4.82
2022-11-17T22:34:04.074Z,3.78
2022-11-17T22:36:40.427Z,3.95
2022-11-17T22:39:27.989Z,4.07
2022-11-17T22:42:24.264Z,3.95
2022-11-17T22:46:06.660Z,4.03
2022-11-17T22:49:20.531Z,4.03
2022-11-17T22:52:04.350Z,4.88
2022-11-17T22:54:31.237Z,5.38
2022-11-17T22:56:58.367Z,4.88
2022-11-17T22:59:25.870Z,6.47
2022-11-17T23:01:52.664Z,6.22
2022-11-17T23:04:19.513Z,5.68
2022-11-17T23:06:46.274Z,7.95
2022-11-17T23:09:12.777Z,7.13
2022-11-17T23:11:39.214Z,5.72
2022-11-17T23:14:07.895Z,5.38
2022-11-17T23:16:34.339Z,6.13
2022-11-17T23:19:00.876Z,5.47
2022-11-17T23:21:27.472Z,7.15
2022-11-17T23:23:53.955Z,5.90
2022-11-17T23:26:20.366Z,5.03
2022-11-17T23:28:46.971Z,6.63
2022-11-17T23:31:15.388Z,6.63
2022-11-17T23:33:44.508Z,5.18
2022-11-17T23:36:18.664Z,6.22
2022-11-17T23:38:46.188Z,6.55
2022-11-17T23:41:14.268Z,5.40
2022-11-17T23:43:41.059Z,6.15
2022-11-17T23:46:10.961Z,6.20
2022-11-17T23:48:37.620Z,6.72
2022-11-17T23:51:08.533Z,5.85
2022-11-17T23:53:35.302Z,5.57
2022-11-17T23:56:02.497Z,5.00
2022-11-17T23:58:29.395Z,6.07
